Portada
METAR-TAF:

METAR-TAF

Aeroports :

Paso de los Libres, Argentina

latitud: 29-41S, longitud: 057-09W, altitud: 69 m

Observació

L'informe es va fer fa 46 minuts, a les 22:00 UTC
Vent 8 kt del Sud
Temperatura 16°C
Humitat 48%
Pressió 1011 hPa
Visibilitat 10 km o més
sense núvols per sota de 1500 mi sense presència de cumulonimbus.

METAR: SARL 172200Z 18008KT CAVOK 16/05 Q1011

Hora: 19:46 (22:46 UTC)


TAF: manca

Observacions i pronòstics meteorològics de més de 4000 aeroports (METAR i TAF).

Les estacions disponibles són els punts grocs i vermells al mapa.

Posi el ratolí al punt desitjat per veure el nom de l'estació.

Feu clic per veure les observacions i els pronòstics meteorològics.

Per canviar el mapa: feu clic els botons verds amb una creu de color negre per apropar; al botó verd amb un guió per allunyar la imatge; o en les fletxes verdes per a mapes adjacents.


METAR-TAF: